Time;durP1;ratioP1;P1;durP2;ratioP2;P2;SDS_P1;SDS_P2;PMS_P1;PMS_P2;Temp;Humidity;BMP_temperature;BMP_pressure;BME280_temperature;BME280_humidity;BME280_pressure;Samples;Min_cycle;Max_cycle;Signal;HPM_P1;HPM_P2
2022/11/28 00:01:21;;;;;;;9.83;7.83;;;;;;;;;;5008724;28;20205;-61
2022/11/28 00:03:48;;;;;;;9.90;7.93;;;;;;;;;;5028717;28;20221;-63
2022/11/28 00:06:16;;;;;;;9.20;7.60;;;;;;;;;;5014203;28;20214;-62
2022/11/28 00:08:43;;;;;;;9.17;7.73;;;;;;;;;;5009361;28;20255;-62
2022/11/28 00:11:12;;;;;;;10.80;8.80;;;;;;;;;;5029386;28;20209;-62
2022/11/28 00:13:40;;;;;;;9.57;8.30;;;;;;;;;;5020500;28;21584;-63
2022/11/28 00:16:08;;;;;;;10.87;8.17;;;;;;;;;;5028984;28;20262;-62
2022/11/28 00:18:35;;;;;;;10.70;8.13;;;;;;;;;;5055054;28;20281;-62
2022/11/28 00:21:04;;;;;;;9.57;7.83;;;;;;;;;;5046093;28;20321;-62
2022/11/28 00:23:32;;;;;;;9.43;7.97;;;;;;;;;;5030417;28;20218;-62
2022/11/28 00:26:00;;;;;;;9.47;7.83;;;;;;;;;;5039828;28;20202;-62
2022/11/28 00:28:27;;;;;;;8.67;7.77;;;;;;;;;;5036151;28;20591;-63
2022/11/28 00:30:55;;;;;;;10.87;8.30;;;;;;;;;;5041889;28;20241;-62
2022/11/28 00:33:23;;;;;;;8.63;7.73;;;;;;;;;;5014790;28;20786;-63
2022/11/28 00:35:51;;;;;;;10.57;8.70;;;;;;;;;;5018643;28;20237;-62
2022/11/28 00:38:18;;;;;;;11.37;8.73;;;;;;;;;;5015586;28;20214;-62
2022/11/28 00:40:46;;;;;;;12.77;9.10;;;;;;;;;;5015387;28;20422;-62
2022/11/28 00:43:13;;;;;;;10.47;8.83;;;;;;;;;;5013817;28;21933;-62
2022/11/28 00:45:41;;;;;;;10.43;8.90;;;;;;;;;;5032408;28;20871;-62
2022/11/28 00:48:08;;;;;;;10.90;9.17;;;;;;;;;;5032156;28;20552;-63
2022/11/28 00:50:35;;;;;;;12.17;9.83;;;;;;;;;;5041718;28;20220;-63
2022/11/28 00:53:03;;;;;;;10.87;9.03;;;;;;;;;;5029389;28;20271;-62
2022/11/28 00:55:30;;;;;;;12.87;10.60;;;;;;;;;;5032447;28;20663;-62
2022/11/28 00:57:58;;;;;;;10.73;9.13;;;;;;;;;;5037359;28;20369;-62
2022/11/28 01:00:25;;;;;;;11.53;9.77;;;;;;;;;;5012940;28;20296;-61
2022/11/28 01:02:53;;;;;;;11.93;9.50;;;;;;;;;;5029000;28;20234;-62
2022/11/28 01:05:21;;;;;;;10.90;9.13;;;;;;;;;;5015213;28;20217;-63
2022/11/28 01:07:48;;;;;;;11.83;9.57;;;;;;;;;;5026034;28;20209;-62
2022/11/28 01:10:15;;;;;;;13.53;10.47;;;;;;;;;;5020822;28;20536;-62
2022/11/28 01:12:43;;;;;;;15.33;10.33;;;;;;;;;;5015205;28;20958;-62
2022/11/28 01:15:11;;;;;;;13.97;10.17;;;;;;;;;;5026522;28;20198;-62
2022/11/28 01:17:38;;;;;;;11.90;9.53;;;;;;;;;;5029710;28;21761;-63
2022/11/28 01:20:07;;;;;;;11.00;9.47;;;;;;;;;;5030002;28;20205;-63
2022/11/28 01:22:34;;;;;;;10.17;8.50;;;;;;;;;;5022684;28;20379;-63
2022/11/28 01:25:02;;;;;;;10.37;8.53;;;;;;;;;;5021717;28;20205;-63
2022/11/28 01:27:29;;;;;;;9.73;8.17;;;;;;;;;;5044032;28;20209;-62
2022/11/28 01:29:56;;;;;;;9.23;8.03;;;;;;;;;;5035407;28;20300;-62
2022/11/28 01:32:23;;;;;;;8.60;7.70;;;;;;;;;;5027591;28;20271;-63
2022/11/28 01:34:51;;;;;;;10.20;7.60;;;;;;;;;;5036274;28;20221;-63
2022/11/28 01:37:18;;;;;;;8.73;7.43;;;;;;;;;;5021017;28;20230;-62
2022/11/28 01:39:46;;;;;;;10.40;7.00;;;;;;;;;;5020679;28;20213;-63
2022/11/28 01:42:18;;;;;;;9.23;6.90;;;;;;;;;;5023183;28;20206;-63
2022/11/28 01:44:49;;;;;;;8.50;7.37;;;;;;;;;;5023707;28;20950;-63
2022/11/28 01:47:20;;;;;;;7.57;6.77;;;;;;;;;;5019969;28;20337;-63
2022/11/28 01:49:49;;;;;;;10.80;7.67;;;;;;;;;;5039022;28;20210;-63
2022/11/28 01:52:18;;;;;;;9.60;8.00;;;;;;;;;;5017915;28;20927;-61
2022/11/28 01:54:48;;;;;;;8.20;7.40;;;;;;;;;;5013729;28;20206;-61
2022/11/28 01:57:17;;;;;;;8.40;7.50;;;;;;;;;;5022977;28;20320;-61
2022/11/28 01:59:48;;;;;;;10.10;7.87;;;;;;;;;;5039586;28;20334;-62
2022/11/28 02:02:22;;;;;;;9.83;8.53;;;;;;;;;;5030449;28;20820;-61
2022/11/28 02:04:50;;;;;;;9.13;8.13;;;;;;;;;;5020753;28;20220;-62
2022/11/28 02:07:21;;;;;;;10.20;8.27;;;;;;;;;;5018801;28;20241;-62
2022/11/28 02:09:48;;;;;;;10.17;8.30;;;;;;;;;;5036876;28;20214;-61
2022/11/28 02:12:16;;;;;;;9.70;8.17;;;;;;;;;;5032922;28;20714;-60
2022/11/28 02:15:02;;;;;;;8.70;7.47;;;;;;;;;;5024709;28;20247;-60
2022/11/28 02:17:32;;;;;;;9.53;8.47;;;;;;;;;;5034148;28;20232;-61
2022/11/28 02:20:18;;;;;;;11.10;8.47;;;;;;;;;;5027981;28;20205;-61
2022/11/28 02:23:01;;;;;;;11.53;8.47;;;;;;;;;;5021324;28;20225;-61
2022/11/28 02:25:31;;;;;;;9.40;8.00;;;;;;;;;;5030932;28;20293;-62
2022/11/28 02:28:11;;;;;;;9.67;7.40;;;;;;;;;;5052826;28;20233;-61
2022/11/28 02:30:39;;;;;;;8.73;6.57;;;;;;;;;;5037922;28;20217;-62
2022/11/28 02:33:06;;;;;;;7.27;6.57;;;;;;;;;;5035797;28;20251;-62
2022/11/28 02:35:45;;;;;;;7.67;6.87;;;;;;;;;;5017853;28;21886;-61
2022/11/28 02:38:19;;;;;;;7.60;6.77;;;;;;;;;;5032370;28;20297;-62
2022/11/28 02:40:59;;;;;;;7.87;7.07;;;;;;;;;;5014165;28;20336;-62
2022/11/28 02:43:42;;;;;;;8.23;7.07;;;;;;;;;;5034841;28;20792;-62
2022/11/28 02:46:12;;;;;;;7.73;6.73;;;;;;;;;;5015100;28;20210;-62
2022/11/28 02:49:02;;;;;;;8.93;7.03;;;;;;;;;;5016588;28;20209;-62
2022/11/28 02:51:51;;;;;;;8.73;7.83;;;;;;;;;;5046390;28;20213;-62
2022/11/28 02:54:20;;;;;;;8.83;6.97;;;;;;;;;;5027884;28;20307;-63
2022/11/28 02:56:52;;;;;;;10.30;7.80;;;;;;;;;;5036106;28;20225;-62
2022/11/28 02:59:44;;;;;;;9.00;7.00;;;;;;;;;;5027533;28;20229;-62
2022/11/28 03:02:24;;;;;;;7.73;6.73;;;;;;;;;;5015479;28;20287;-62
2022/11/28 03:04:55;;;;;;;7.60;6.80;;;;;;;;;;5044921;28;20210;-62
2022/11/28 03:07:41;;;;;;;9.53;6.83;;;;;;;;;;5043127;28;20296;-63
2022/11/28 03:10:22;;;;;;;6.93;6.23;;;;;;;;;;5021719;28;20209;-63
2022/11/28 03:13:03;;;;;;;8.93;7.13;;;;;;;;;;5007170;28;20247;-62
2022/11/28 03:15:36;;;;;;;8.87;6.80;;;;;;;;;;5014350;28;20320;-62
2022/11/28 03:18:11;;;;;;;8.47;6.87;;;;;;;;;;5027986;28;20225;-62
2022/11/28 03:20:38;;;;;;;9.67;6.97;;;;;;;;;;5018780;28;20287;-62
2022/11/28 03:23:08;;;;;;;8.07;6.57;;;;;;;;;;5023696;28;20319;-61
2022/11/28 03:25:52;;;;;;;8.17;6.33;;;;;;;;;;5031632;28;20201;-61
2022/11/28 03:28:24;;;;;;;6.70;6.00;;;;;;;;;;5025410;28;20710;-63
2022/11/28 03:31:11;;;;;;;6.67;5.97;;;;;;;;;;5029356;28;20214;-62
2022/11/28 03:33:42;;;;;;;14.47;10.33;;;;;;;;;;5031086;28;20710;-62
2022/11/28 03:36:31;;;;;;;7.43;6.60;;;;;;;;;;5009762;28;21831;-62
2022/11/28 03:39:18;;;;;;;7.10;6.07;;;;;;;;;;5006596;28;20251;-62
2022/11/28 03:41:58;;;;;;;8.03;6.47;;;;;;;;;;5024634;28;20659;-62
2022/11/28 03:44:39;;;;;;;7.10;6.33;;;;;;;;;;5011221;28;20266;-61
2022/11/28 03:47:07;;;;;;;7.50;6.30;;;;;;;;;;5014903;28;20231;-61
2022/11/28 03:49:45;;;;;;;8.97;7.47;;;;;;;;;;5011426;28;20217;-62
2022/11/28 03:52:15;;;;;;;7.37;6.63;;;;;;;;;;5033939;28;20209;-61
2022/11/28 03:54:49;;;;;;;8.20;6.47;;;;;;;;;;5029362;28;20299;-61
2022/11/28 03:57:28;;;;;;;7.10;6.40;;;;;;;;;;5010648;28;20225;-60
2022/11/28 03:59:57;;;;;;;7.90;6.83;;;;;;;;;;5029144;28;20286;-61
2022/11/28 04:02:36;;;;;;;7.77;7.00;;;;;;;;;;5010320;28;20236;-63
2022/11/28 04:05:22;;;;;;;8.17;7.13;;;;;;;;;;5014361;28;20590;-60
2022/11/28 04:07:49;;;;;;;13.57;10.30;;;;;;;;;;5027440;28;20358;-61
2022/11/28 04:10:21;;;;;;;11.63;8.27;;;;;;;;;;5007034;28;20205;-62
2022/11/28 04:12:49;;;;;;;8.47;7.10;;;;;;;;;;5030423;28;20226;-60
2022/11/28 04:15:26;;;;;;;10.43;7.63;;;;;;;;;;5027424;28;20729;-65
2022/11/28 04:17:59;;;;;;;10.53;7.60;;;;;;;;;;5033136;28;20382;-63
2022/11/28 04:20:38;;;;;;;8.70;7.07;;;;;;;;;;5045110;28;20207;-62
2022/11/28 04:23:16;;;;;;;8.60;7.40;;;;;;;;;;5046850;28;20232;-61
2022/11/28 04:25:47;;;;;;;9.10;7.60;;;;;;;;;;5053626;28;20285;-61
2022/11/28 04:28:17;;;;;;;10.97;8.47;;;;;;;;;;5042707;28;20209;-62
2022/11/28 04:30:45;;;;;;;19.03;14.30;;;;;;;;;;5042862;28;20272;-61
2022/11/28 04:33:13;;;;;;;9.77;7.77;;;;;;;;;;5053031;28;20254;-61
2022/11/28 04:35:43;;;;;;;9.30;7.27;;;;;;;;;;5046911;28;20733;-62
2022/11/28 04:38:11;;;;;;;10.07;7.40;;;;;;;;;;5061633;28;20283;-63
2022/11/28 04:40:51;;;;;;;7.97;6.97;;;;;;;;;;5060464;28;21018;-61
2022/11/28 04:43:29;;;;;;;9.57;6.77;;;;;;;;;;5060573;28;20313;-63
2022/11/28 04:46:01;;;;;;;13.00;8.87;;;;;;;;;;5039832;28;20683;-63
2022/11/28 04:48:28;;;;;;;13.30;8.10;;;;;;;;;;5045684;28;20336;-62
2022/11/28 04:51:33;;;;;;;14.00;9.20;;;;;;;;;;5043216;28;20928;-62
2022/11/28 04:54:14;;;;;;;11.57;8.77;;;;;;;;;;5004424;28;20229;-64
2022/11/28 04:56:41;;;;;;;11.53;8.97;;;;;;;;;;5048428;28;20683;-63
2022/11/28 04:59:09;;;;;;;9.90;8.00;;;;;;;;;;5037889;28;20294;-60
2022/11/28 05:01:38;;;;;;;8.70;6.73;;;;;;;;;;5026174;28;20308;-62
2022/11/28 05:04:07;;;;;;;22.33;14.97;;;;;;;;;;5045981;28;20275;-63
2022/11/28 05:06:35;;;;;;;30.47;18.90;;;;;;;;;;5044400;28;20857;-61
2022/11/28 05:09:03;;;;;;;28.33;17.00;;;;;;;;;;5032820;28;20220;-61
2022/11/28 05:11:31;;;;;;;27.67;17.33;;;;;;;;;;5023869;28;20287;-62
2022/11/28 05:13:58;;;;;;;32.90;17.97;;;;;;;;;;5048177;28;20231;-61
2022/11/28 05:16:26;;;;;;;34.63;19.13;;;;;;;;;;5021426;28;20233;-61
2022/11/28 05:18:54;;;;;;;27.03;16.47;;;;;;;;;;5038335;28;20206;-62
2022/11/28 05:21:21;;;;;;;13.77;11.00;;;;;;;;;;5029450;28;20310;-62
2022/11/28 05:23:48;;;;;;;13.33;10.57;;;;;;;;;;5029521;28;20229;-63
2022/11/28 05:26:17;;;;;;;12.90;9.43;;;;;;;;;;5018423;28;20891;-62
2022/11/28 05:28:46;;;;;;;12.50;9.40;;;;;;;;;;5011683;28;20306;-62
2022/11/28 05:31:14;;;;;;;11.43;9.30;;;;;;;;;;5014538;28;20205;-62
2022/11/28 05:33:42;;;;;;;10.93;9.70;;;;;;;;;;5029306;28;20221;-62
2022/11/28 05:36:11;;;;;;;11.70;9.40;;;;;;;;;;5016987;28;20225;-62
2022/11/28 05:38:40;;;;;;;11.37;9.20;;;;;;;;;;5034609;28;20229;-62
2022/11/28 05:41:08;;;;;;;13.57;9.27;;;;;;;;;;5036010;28;20320;-63
2022/11/28 05:43:36;;;;;;;12.67;9.73;;;;;;;;;;5016311;28;20226;-61
2022/11/28 05:46:05;;;;;;;10.33;9.23;;;;;;;;;;5039340;28;20448;-63
2022/11/28 05:48:33;;;;;;;10.70;9.47;;;;;;;;;;5023031;28;20217;-62
2022/11/28 05:51:00;;;;;;;10.67;9.17;;;;;;;;;;5021533;28;20604;-62
2022/11/28 05:53:27;;;;;;;10.20;8.63;;;;;;;;;;5036867;28;20233;-62
2022/11/28 05:55:55;;;;;;;12.73;10.10;;;;;;;;;;5003592;28;20716;-62
2022/11/28 05:58:22;;;;;;;11.40;9.97;;;;;;;;;;4998709;28;20234;-63
2022/11/28 06:00:50;;;;;;;12.50;10.40;;;;;;;;;;5025518;28;20221;-62
2022/11/28 06:03:18;;;;;;;15.40;10.80;;;;;;;;;;5023605;28;20698;-62
2022/11/28 06:05:45;;;;;;;14.60;11.10;;;;;;;;;;5018506;28;22405;-62
2022/11/28 06:08:13;;;;;;;17.43;11.93;;;;;;;;;;5022109;28;20825;-62
2022/11/28 06:10:41;;;;;;;16.43;12.20;;;;;;;;;;5026761;28;20284;-63
2022/11/28 06:13:08;;;;;;;16.40;12.53;;;;;;;;;;5035052;28;20226;-62
2022/11/28 06:15:35;;;;;;;17.40;13.23;;;;;;;;;;5032715;28;20223;-62
2022/11/28 06:18:04;;;;;;;15.20;12.30;;;;;;;;;;5035932;28;20676;-60
2022/11/28 06:20:34;;;;;;;16.73;12.50;;;;;;;;;;5035233;28;20209;-61
2022/11/28 06:23:02;;;;;;;17.67;13.00;;;;;;;;;;5056292;28;20229;-61
2022/11/28 06:25:29;;;;;;;15.53;12.63;;;;;;;;;;5030616;28;20210;-61
2022/11/28 06:27:56;;;;;;;16.67;13.10;;;;;;;;;;5037595;28;20275;-60
2022/11/28 06:30:24;;;;;;;18.87;13.90;;;;;;;;;;5043037;28;20211;-64
2022/11/28 06:32:51;;;;;;;16.07;12.73;;;;;;;;;;5036476;28;20320;-61
2022/11/28 06:35:19;;;;;;;18.03;13.23;;;;;;;;;;5035551;28;21559;-61
2022/11/28 06:37:46;;;;;;;16.50;13.73;;;;;;;;;;5025964;28;20233;-61
2022/11/28 06:40:14;;;;;;;17.10;13.50;;;;;;;;;;5018932;28;21073;-63
2022/11/28 06:42:41;;;;;;;17.53;13.50;;;;;;;;;;5020707;28;20857;-62
2022/11/28 06:45:09;;;;;;;18.23;13.57;;;;;;;;;;5022240;28;20533;-63
2022/11/28 06:47:36;;;;;;;15.60;12.23;;;;;;;;;;5034628;28;20518;-62
2022/11/28 06:50:04;;;;;;;15.90;12.10;;;;;;;;;;5049136;28;20209;-63
2022/11/28 06:52:31;;;;;;;15.63;12.40;;;;;;;;;;5056338;28;21063;-63
2022/11/28 06:54:59;;;;;;;17.03;13.27;;;;;;;;;;5029588;28;20664;-63
2022/11/28 06:57:26;;;;;;;17.23;14.67;;;;;;;;;;5033875;28;20348;-63
2022/11/28 06:59:54;;;;;;;17.10;13.27;;;;;;;;;;5027420;28;20843;-63
2022/11/28 07:02:23;;;;;;;17.00;13.17;;;;;;;;;;5032949;28;20241;-62
2022/11/28 07:04:51;;;;;;;16.77;12.77;;;;;;;;;;5052740;28;20293;-61
2022/11/28 07:07:18;;;;;;;21.73;16.00;;;;;;;;;;5030464;28;20237;-62
2022/11/28 07:09:46;;;;;;;20.13;15.17;;;;;;;;;;5020112;28;20213;-61
2022/11/28 07:12:13;;;;;;;17.87;13.87;;;;;;;;;;5016507;28;20305;-62
2022/11/28 07:14:41;;;;;;;21.43;17.00;;;;;;;;;;5037956;28;20659;-62
2022/11/28 07:17:08;;;;;;;24.30;19.57;;;;;;;;;;5020172;28;20229;-62
2022/11/28 07:19:35;;;;;;;23.33;19.33;;;;;;;;;;5015407;28;20343;-61
2022/11/28 07:22:03;;;;;;;21.60;18.27;;;;;;;;;;5016818;28;20236;-61
2022/11/28 07:24:31;;;;;;;19.20;15.50;;;;;;;;;;5039428;28;20224;-61
2022/11/28 07:26:58;;;;;;;16.33;13.60;;;;;;;;;;5017633;28;20208;-61
2022/11/28 07:29:34;;;;;;;19.77;13.63;;;;;;;;;;5014598;28;20211;-62
2022/11/28 07:32:04;;;;;;;16.37;13.83;;;;;;;;;;5018611;28;22120;-62
2022/11/28 07:34:32;;;;;;;17.37;12.90;;;;;;;;;;5016106;28;20206;-61
2022/11/28 07:36:59;;;;;;;18.07;13.67;;;;;;;;;;5020154;28;20413;-61
2022/11/28 07:39:27;;;;;;;17.93;13.93;;;;;;;;;;5036549;28;20240;-62
2022/11/28 07:41:54;;;;;;;17.47;14.27;;;;;;;;;;5010932;28;20212;-61
2022/11/28 07:44:22;;;;;;;17.37;13.37;;;;;;;;;;5033865;28;20313;-61
2022/11/28 07:46:49;;;;;;;17.57;13.00;;;;;;;;;;5028520;28;20312;-61
2022/11/28 07:49:16;;;;;;;16.87;12.70;;;;;;;;;;5037099;28;20794;-61
2022/11/28 07:51:44;;;;;;;17.83;13.53;;;;;;;;;;5016968;28;20297;-64
2022/11/28 07:54:13;;;;;;;18.87;13.07;;;;;;;;;;5021243;28;20225;-62
2022/11/28 07:56:40;;;;;;;16.87;13.33;;;;;;;;;;5011567;28;20984;-62
2022/11/28 07:59:28;;;;;;;18.57;13.47;;;;;;;;;;5021944;28;20209;-62
2022/11/28 08:01:55;;;;;;;16.77;13.10;;;;;;;;;;5016712;28;20216;-62
2022/11/28 08:04:22;;;;;;;18.33;13.80;;;;;;;;;;5014921;28;20275;-63
2022/11/28 08:06:50;;;;;;;18.67;14.83;;;;;;;;;;5038709;28;20220;-63
2022/11/28 08:09:18;;;;;;;18.30;13.57;;;;;;;;;;5015133;28;20205;-62
2022/11/28 08:11:45;;;;;;;21.93;13.23;;;;;;;;;;5024218;28;20240;-62
2022/11/28 08:14:13;;;;;;;17.23;12.67;;;;;;;;;;5015468;28;20225;-63
2022/11/28 08:16:43;;;;;;;14.10;11.90;;;;;;;;;;5022867;28;20731;-62
2022/11/28 08:19:11;;;;;;;14.60;11.33;;;;;;;;;;5044180;28;20707;-64
2022/11/28 08:21:38;;;;;;;16.17;11.00;;;;;;;;;;5031751;28;20292;-63
2022/11/28 08:24:06;;;;;;;15.63;11.50;;;;;;;;;;5033302;28;20309;-63
2022/11/28 08:26:35;;;;;;;14.27;11.07;;;;;;;;;;5051158;28;20197;-63
2022/11/28 08:29:03;;;;;;;14.07;10.63;;;;;;;;;;5039254;28;20249;-62
2022/11/28 08:31:32;;;;;;;19.07;13.70;;;;;;;;;;5027513;28;20329;-62
2022/11/28 08:34:01;;;;;;;19.93;13.83;;;;;;;;;;5019484;28;20237;-63
2022/11/28 08:36:28;;;;;;;13.87;11.30;;;;;;;;;;5024466;28;20757;-63
2022/11/28 08:38:56;;;;;;;14.03;11.10;;;;;;;;;;5022290;28;20248;-62
2022/11/28 08:41:43;;;;;;;13.67;11.37;;;;;;;;;;5030457;28;20658;-63
2022/11/28 08:44:11;;;;;;;15.37;10.77;;;;;;;;;;5025299;28;20707;-61
2022/11/28 08:46:38;;;;;;;11.00;9.50;;;;;;;;;;5037431;28;20201;-62
2022/11/28 08:49:06;;;;;;;11.63;9.47;;;;;;;;;;5053287;28;20739;-61
2022/11/28 08:51:33;;;;;;;14.53;9.27;;;;;;;;;;5040156;28;20205;-61
2022/11/28 08:54:01;;;;;;;11.10;8.87;;;;;;;;;;5046257;28;20307;-63
2022/11/28 08:56:28;;;;;;;13.50;9.30;;;;;;;;;;5054125;28;20224;-61
2022/11/28 08:58:55;;;;;;;11.93;9.20;;;;;;;;;;5053488;28;20264;-60
2022/11/28 09:01:25;;;;;;;15.60;11.40;;;;;;;;;;5049576;28;20205;-61
2022/11/28 09:03:54;;;;;;;13.27;10.80;;;;;;;;;;5038949;28;20249;-61
2022/11/28 09:06:22;;;;;;;10.97;9.03;;;;;;;;;;5032932;28;20201;-61
2022/11/28 09:08:50;;;;;;;12.10;10.60;;;;;;;;;;5036797;28;20218;-62
2022/11/28 09:11:19;;;;;;;12.30;10.93;;;;;;;;;;5051210;28;20315;-61
2022/11/28 09:13:47;;;;;;;11.57;10.10;;;;;;;;;;5035648;28;20328;-61
2022/11/28 09:16:14;;;;;;;16.23;12.00;;;;;;;;;;5052241;28;20282;-62
2022/11/28 09:18:42;;;;;;;26.10;15.53;;;;;;;;;;5036283;28;20285;-63
2022/11/28 09:21:11;;;;;;;29.13;18.23;;;;;;;;;;5055471;28;20270;-63
2022/11/28 09:23:39;;;;;;;27.30;16.43;;;;;;;;;;5054000;28;20311;-61
2022/11/28 09:26:11;;;;;;;17.63;12.33;;;;;;;;;;5031841;28;20694;-63
2022/11/28 09:28:39;;;;;;;11.43;9.73;;;;;;;;;;5055007;28;20209;-61
2022/11/28 09:31:06;;;;;;;11.17;9.03;;;;;;;;;;5053898;28;20237;-64
2022/11/28 09:33:35;;;;;;;10.70;8.77;;;;;;;;;;5031807;28;20681;-61
2022/11/28 09:36:10;;;;;;;12.33;9.93;;;;;;;;;;5032909;28;20229;-62
2022/11/28 09:38:37;;;;;;;14.23;9.70;;;;;;;;;;5029525;28;20731;-61
2022/11/28 09:41:23;;;;;;;24.53;15.63;;;;;;;;;;5033229;28;20201;-62
2022/11/28 09:43:51;;;;;;;40.13;23.23;;;;;;;;;;5029342;28;20826;-61
2022/11/28 09:46:25;;;;;;;47.47;26.63;;;;;;;;;;5035437;28;20296;-61
2022/11/28 09:48:55;;;;;;;35.43;20.80;;;;;;;;;;5055938;28;20209;-61
2022/11/28 09:51:43;;;;;;;13.20;10.27;;;;;;;;;;5055533;28;20239;-63
2022/11/28 09:54:14;;;;;;;15.40;11.03;;;;;;;;;;5055949;28;20569;-62
2022/11/28 09:56:43;;;;;;;12.17;9.37;;;;;;;;;;5049641;28;20618;-64
2022/11/28 09:59:20;;;;;;;15.90;9.30;;;;;;;;;;5038441;28;20228;-61
2022/11/28 10:01:51;;;;;;;11.60;9.50;;;;;;;;;;5034509;28;20297;-62
2022/11/28 10:04:23;;;;;;;11.47;9.20;;;;;;;;;;5039102;28;20232;-62
2022/11/28 10:07:00;;;;;;;11.50;8.87;;;;;;;;;;5036714;28;20488;-62
2022/11/28 10:09:28;;;;;;;12.47;8.03;;;;;;;;;;5033186;28;20209;-62
2022/11/28 10:11:58;;;;;;;10.40;8.10;;;;;;;;;;5035533;28;20403;-63
2022/11/28 10:14:42;;;;;;;9.63;7.80;;;;;;;;;;5031775;28;20229;-61
2022/11/28 10:17:28;;;;;;;10.67;8.57;;;;;;;;;;5038249;28;20201;-62
2022/11/28 10:20:05;;;;;;;10.07;8.17;;;;;;;;;;5023187;28;20229;-62
2022/11/28 10:22:43;;;;;;;11.03;7.93;;;;;;;;;;5031961;28;20272;-62
2022/11/28 10:25:24;;;;;;;11.17;8.37;;;;;;;;;;5036259;28;20690;-63
2022/11/28 10:27:51;;;;;;;10.23;7.87;;;;;;;;;;5053144;28;20291;-63
2022/11/28 10:30:41;;;;;;;10.63;8.60;;;;;;;;;;5034208;28;20296;-63
2022/11/28 10:33:19;;;;;;;13.37;9.53;;;;;;;;;;5034086;28;20324;-62
2022/11/28 10:35:57;;;;;;;11.80;9.17;;;;;;;;;;5034851;28;20251;-62
2022/11/28 10:38:26;;;;;;;9.67;8.17;;;;;;;;;;5033563;28;20233;-62
2022/11/28 10:40:54;;;;;;;9.03;6.87;;;;;;;;;;5050699;28;20271;-64
2022/11/28 10:43:24;;;;;;;9.60;6.27;;;;;;;;;;5033508;28;20316;-62
2022/11/28 10:45:57;;;;;;;8.47;5.87;;;;;;;;;;5048920;28;20206;-63
2022/11/28 10:48:48;;;;;;;7.27;5.60;;;;;;;;;;5053744;28;20220;-64
2022/11/28 10:51:25;;;;;;;8.37;6.43;;;;;;;;;;5047538;28;20201;-64
2022/11/28 10:54:05;;;;;;;10.00;6.50;;;;;;;;;;5054871;28;20226;-64
2022/11/28 10:56:33;;;;;;;8.63;7.03;;;;;;;;;;5052580;28;20205;-64
2022/11/28 10:59:17;;;;;;;9.67;7.17;;;;;;;;;;5054425;28;20740;-65
2022/11/28 11:01:44;;;;;;;6.87;5.80;;;;;;;;;;5039460;28;20678;-63
2022/11/28 11:04:19;;;;;;;5.90;5.20;;;;;;;;;;5013184;28;20686;-61
2022/11/28 11:06:53;;;;;;;8.70;4.70;;;;;;;;;;5033264;28;20198;-63
2022/11/28 11:09:37;;;;;;;7.03;5.47;;;;;;;;;;5031537;28;20210;-63
2022/11/28 11:12:06;;;;;;;6.97;4.70;;;;;;;;;;5030627;28;20221;-63
2022/11/28 11:14:35;;;;;;;6.47;4.70;;;;;;;;;;5048127;28;20235;-63
2022/11/28 11:17:03;;;;;;;6.03;5.00;;;;;;;;;;5023781;28;20205;-62
2022/11/28 11:19:38;;;;;;;6.03;4.57;;;;;;;;;;5049290;28;20813;-63
2022/11/28 11:22:06;;;;;;;5.13;4.20;;;;;;;;;;5017667;28;20209;-64
2022/11/28 11:24:34;;;;;;;4.27;3.87;;;;;;;;;;5038550;28;20214;-63
2022/11/28 11:27:16;;;;;;;4.30;3.90;;;;;;;;;;5045000;28;20258;-64
2022/11/28 11:29:44;;;;;;;7.60;5.53;;;;;;;;;;5052018;28;20206;-63
2022/11/28 11:32:20;;;;;;;10.63;7.77;;;;;;;;;;5048860;28;20205;-64
2022/11/28 11:34:48;;;;;;;9.73;7.80;;;;;;;;;;5055831;28;20221;-64
2022/11/28 11:37:19;;;;;;;10.40;8.10;;;;;;;;;;5050295;28;20282;-63
2022/11/28 11:39:48;;;;;;;6.03;4.70;;;;;;;;;;5047384;28;20283;-64
2022/11/28 11:42:20;;;;;;;8.70;4.83;;;;;;;;;;5037799;28;20899;-64
2022/11/28 11:44:47;;;;;;;6.27;4.60;;;;;;;;;;5041300;28;20201;-64
2022/11/28 11:47:15;;;;;;;7.33;5.67;;;;;;;;;;5021382;28;20821;-64
2022/11/28 11:49:43;;;;;;;12.93;5.87;;;;;;;;;;5008971;28;20600;-64
2022/11/28 11:52:14;;;;;;;9.63;5.47;;;;;;;;;;5034951;28;20216;-64
2022/11/28 11:54:57;;;;;;;13.10;6.70;;;;;;;;;;5011825;28;20301;-64
2022/11/28 11:57:31;;;;;;;4.87;4.37;;;;;;;;;;5017124;28;20305;-64
2022/11/28 12:00:03;;;;;;;7.27;4.30;;;;;;;;;;5023134;28;20375;-63
2022/11/28 12:02:33;;;;;;;9.83;4.50;;;;;;;;;;5019483;28;20662;-64
2022/11/28 12:05:20;;;;;;;6.43;4.73;;;;;;;;;;5021975;28;20233;-63
2022/11/28 12:07:54;;;;;;;12.30;9.23;;;;;;;;;;5014574;28;20226;-63
2022/11/28 12:10:23;;;;;;;14.83;10.37;;;;;;;;;;5016564;28;20198;-63
2022/11/28 12:12:50;;;;;;;13.07;9.30;;;;;;;;;;5023480;28;20399;-63
2022/11/28 12:15:24;;;;;;;9.07;5.53;;;;;;;;;;5053015;28;20695;-63
2022/11/28 12:18:02;;;;;;;5.93;4.27;;;;;;;;;;5036976;28;20205;-63
2022/11/28 12:20:48;;;;;;;7.20;4.20;;;;;;;;;;5058440;28;20678;-65
2022/11/28 12:23:30;;;;;;;4.30;3.50;;;;;;;;;;5061708;28;20222;-64
2022/11/28 12:26:27;;;;;;;6.70;4.10;;;;;;;;;;5045117;28;20216;-64
2022/11/28 12:28:57;;;;;;;4.47;3.77;;;;;;;;;;4996655;28;20230;-63
2022/11/28 12:31:44;;;;;;;6.80;4.00;;;;;;;;;;5048403;28;20222;-63
2022/11/28 12:34:14;;;;;;;4.83;3.43;;;;;;;;;;5037573;28;20237;-64
2022/11/28 12:37:01;;;;;;;3.83;3.53;;;;;;;;;;5015492;28;20311;-65
2022/11/28 12:39:47;;;;;;;3.50;3.20;;;;;;;;;;5017109;28;20602;-63
2022/11/28 12:42:23;;;;;;;4.20;3.20;;;;;;;;;;5016069;28;20221;-65
2022/11/28 12:45:10;;;;;;;3.60;3.30;;;;;;;;;;5017686;28;20274;-61
2022/11/28 12:47:40;;;;;;;5.20;4.23;;;;;;;;;;5022439;28;20229;-63
2022/11/28 12:50:08;;;;;;;4.27;3.87;;;;;;;;;;5031854;28;20729;-61
2022/11/28 12:52:54;;;;;;;4.50;3.97;;;;;;;;;;5030753;28;20320;-64
2022/11/28 12:55:32;;;;;;;4.93;3.77;;;;;;;;;;5031987;28;20322;-62
2022/11/28 12:58:12;;;;;;;4.53;3.90;;;;;;;;;;5045231;28;20224;-66
2022/11/28 13:01:11;;;;;;;4.90;3.70;;;;;;;;;;5024945;28;20289;-65
2022/11/28 13:03:44;;;;;;;6.70;4.10;;;;;;;;;;5015406;28;20221;-64
2022/11/28 13:06:12;;;;;;;6.67;4.10;;;;;;;;;;5012673;28;20210;-64
2022/11/28 13:08:55;;;;;;;5.10;4.00;;;;;;;;;;5019239;28;20300;-63
2022/11/28 13:11:31;;;;;;;9.47;6.07;;;;;;;;;;5006398;28;20221;-62
2022/11/28 13:14:04;;;;;;;8.30;6.07;;;;;;;;;;5014189;28;20235;-63
2022/11/28 13:16:41;;;;;;;7.27;5.20;;;;;;;;;;5043301;28;20318;-62
2022/11/28 13:19:27;;;;;;;11.80;6.60;;;;;;;;;;5044490;28;20627;-63
2022/11/28 13:22:22;;;;;;;10.97;7.67;;;;;;;;;;5035884;28;20240;-62
2022/11/28 13:25:09;;;;;;;10.70;7.50;;;;;;;;;;5009811;28;20309;-62
2022/11/28 13:27:56;;;;;;;7.23;5.17;;;;;;;;;;4991526;28;20237;-62
2022/11/28 13:30:25;;;;;;;7.40;4.57;;;;;;;;;;5020710;28;20297;-62
2022/11/28 13:33:01;;;;;;;7.93;4.23;;;;;;;;;;5028331;28;20346;-62
2022/11/28 13:35:28;;;;;;;4.67;4.20;;;;;;;;;;5034721;28;20306;-62
2022/11/28 13:38:04;;;;;;;4.17;3.50;;;;;;;;;;5031562;28;20211;-64
2022/11/28 13:40:59;;;;;;;4.73;3.90;;;;;;;;;;5021770;28;20221;-62
2022/11/28 13:43:39;;;;;;;7.30;4.77;;;;;;;;;;5019236;28;20240;-62
2022/11/28 13:46:07;;;;;;;8.70;5.70;;;;;;;;;;5036429;28;20318;-62
2022/11/28 13:48:38;;;;;;;8.53;5.90;;;;;;;;;;5020817;28;20209;-63
2022/11/28 13:51:27;;;;;;;15.57;9.93;;;;;;;;;;5006158;28;20216;-64
2022/11/28 13:54:17;;;;;;;11.47;8.43;;;;;;;;;;5027222;28;20234;-62
2022/11/28 13:56:46;;;;;;;9.17;6.10;;;;;;;;;;5036400;28;20729;-63
2022/11/28 13:59:21;;;;;;;9.93;6.50;;;;;;;;;;5019588;28;20301;-64
2022/11/28 14:01:53;;;;;;;7.63;6.17;;;;;;;;;;5020401;28;20792;-63
2022/11/28 14:04:21;;;;;;;9.13;6.30;;;;;;;;;;5032712;28;20233;-63
2022/11/28 14:06:57;;;;;;;7.00;5.60;;;;;;;;;;5031486;28;20593;-62
2022/11/28 14:09:34;;;;;;;7.70;6.80;;;;;;;;;;5018414;28;20213;-64
2022/11/28 14:12:18;;;;;;;9.23;5.77;;;;;;;;;;5037301;28;20227;-64
2022/11/28 14:14:45;;;;;;;7.67;5.33;;;;;;;;;;5030113;28;20347;-63
2022/11/28 14:17:16;;;;;;;5.10;4.50;;;;;;;;;;5037394;28;20229;-65
2022/11/28 14:19:54;;;;;;;7.07;5.33;;;;;;;;;;5034169;28;20228;-64
2022/11/28 14:22:41;;;;;;;8.27;5.00;;;;;;;;;;5037418;28;20288;-65
2022/11/28 14:25:14;;;;;;;7.47;6.47;;;;;;;;;;5037456;28;20289;-63
2022/11/28 14:27:47;;;;;;;8.70;6.37;;;;;;;;;;5053774;28;20209;-64
2022/11/28 14:30:34;;;;;;;7.83;6.63;;;;;;;;;;5034277;28;20577;-64
2022/11/28 14:33:04;;;;;;;8.37;7.03;;;;;;;;;;5057249;28;20647;-62
2022/11/28 14:35:50;;;;;;;10.23;7.07;;;;;;;;;;5033336;28;20260;-63
2022/11/28 14:38:26;;;;;;;12.00;9.23;;;;;;;;;;5055992;28;20256;-62
2022/11/28 14:40:55;;;;;;;7.43;6.07;;;;;;;;;;5052874;28;20280;-63
2022/11/28 14:43:30;;;;;;;8.33;6.37;;;;;;;;;;5051978;28;20230;-63
2022/11/28 14:46:30;;;;;;;8.17;6.50;;;;;;;;;;5033558;28;20324;-62
2022/11/28 14:48:58;;;;;;;8.07;6.10;;;;;;;;;;5008585;28;20209;-62
2022/11/28 14:51:44;;;;;;;6.50;5.37;;;;;;;;;;5050995;28;20835;-62
2022/11/28 14:54:21;;;;;;;7.20;5.93;;;;;;;;;;5067175;28;20217;-63
2022/11/28 14:56:52;;;;;;;8.83;6.37;;;;;;;;;;5053704;28;20250;-61
2022/11/28 14:59:32;;;;;;;9.03;6.63;;;;;;;;;;5046257;28;20252;-63
2022/11/28 15:01:59;;;;;;;8.50;6.33;;;;;;;;;;5036854;28;20237;-63